createdAt,value
2018-07-02T05:47:16.906Z,1.60
2018-07-02T05:49:45.696Z,1.50
2018-07-02T05:52:14.468Z,2.20
2018-07-02T05:54:43.273Z,1.60
2018-07-02T05:57:11.949Z,1.60
2018-07-02T05:59:40.650Z,1.53
2018-07-02T06:02:09.468Z,1.63
2018-07-02T06:04:37.790Z,1.60
2018-07-02T06:07:06.494Z,1.60
2018-07-02T06:09:34.790Z,1.60
2018-07-02T06:12:03.313Z,1.40
2018-07-02T06:14:31.828Z,1.50
2018-07-02T06:17:00.144Z,1.70
2018-07-02T06:19:28.800Z,1.63
2018-07-02T06:21:57.156Z,1.27
2018-07-02T06:24:25.590Z,1.43
2018-07-02T06:26:54.049Z,1.60
2018-07-02T06:29:22.383Z,1.60
2018-07-02T06:31:50.869Z,1.30
2018-07-02T06:34:19.628Z,1.57
2018-07-02T06:36:47.975Z,1.70
2018-07-02T06:39:16.262Z,2.07
2018-07-02T06:41:44.712Z,1.50
2018-07-02T06:44:13.039Z,1.40
2018-07-02T06:46:41.418Z,1.30
2018-07-02T06:49:09.766Z,2.07
2018-07-02T06:51:38.287Z,1.50
2018-07-02T06:54:06.710Z,1.70
2018-07-02T06:56:35.966Z,1.57
2018-07-02T06:59:04.331Z,1.87
2018-07-02T07:01:32.765Z,1.40
2018-07-02T07:04:01.284Z,1.47
2018-07-02T07:06:29.613Z,1.37
2018-07-02T07:08:58.107Z,1.50
2018-07-02T07:11:27.202Z,1.40
2018-07-02T07:13:55.556Z,1.37
2018-07-02T07:16:23.865Z,1.67
2018-07-02T07:18:52.236Z,1.50
2018-07-02T07:21:20.795Z,1.73
2018-07-02T07:24:08.710Z,1.60
2018-07-02T07:26:38.411Z,1.30
2018-07-02T07:29:06.968Z,1.23
2018-07-02T07:31:35.253Z,1.70
2018-07-02T07:34:03.974Z,1.40
2018-07-02T07:36:32.803Z,1.80
2018-07-02T07:39:01.474Z,1.60
2018-07-02T07:41:30.236Z,1.40
2018-07-02T07:43:58.491Z,1.20
2018-07-02T07:46:26.801Z,1.40
2018-07-02T07:48:55.363Z,1.73
2018-07-02T07:51:24.025Z,1.70
2018-07-02T07:53:52.355Z,1.27
2018-07-02T07:56:20.674Z,1.47
2018-07-02T07:59:05.453Z,1.27
2018-07-02T08:01:34.097Z,1.40
2018-07-02T08:04:02.403Z,1.60
2018-07-02T08:06:30.752Z,1.30
2018-07-02T08:09:00.259Z,1.30
2018-07-02T08:11:29.118Z,1.77
2018-07-02T08:13:57.423Z,1.27
2018-07-02T08:16:25.714Z,1.40
2018-07-02T08:18:54.100Z,1.33
2018-07-02T08:21:22.442Z,1.40
2018-07-02T08:23:50.795Z,1.40
2018-07-02T08:26:19.326Z,1.70
2018-07-02T08:28:47.795Z,1.60
2018-07-02T08:31:16.107Z,1.30
2018-07-02T08:33:44.421Z,1.30
2018-07-02T08:36:13.006Z,1.43
2018-07-02T08:38:41.515Z,1.67
2018-07-02T08:41:09.894Z,1.47
2018-07-02T08:43:38.461Z,1.40
2018-07-02T08:46:07.250Z,1.47
2018-07-02T08:48:36.082Z,1.50
2018-07-02T08:51:05.302Z,1.30
2018-07-02T08:53:33.738Z,1.43
2018-07-02T08:56:02.119Z,1.20
2018-07-02T08:58:30.488Z,1.60
2018-07-02T09:00:58.746Z,1.27
2018-07-02T09:03:27.457Z,1.60
2018-07-02T09:05:55.750Z,1.70
2018-07-02T09:08:24.058Z,1.40
2018-07-02T09:10:52.398Z,1.40
2018-07-02T09:13:49.623Z,1.33
2018-07-02T09:16:18.385Z,1.47
2018-07-02T09:18:47.274Z,1.53
2018-07-02T09:21:17.181Z,1.40
2018-07-02T09:23:47.722Z,1.00
2018-07-02T09:26:17.795Z,1.10
2018-07-02T09:28:47.256Z,1.50
2018-07-02T09:31:18.407Z,1.33
2018-07-02T09:33:47.558Z,1.27
2018-07-02T09:36:20.812Z,1.40
2018-07-02T09:38:49.619Z,1.60
2018-07-02T09:41:18.922Z,1.80
2018-07-02T09:43:47.722Z,1.40
2018-07-02T09:46:16.014Z,1.50
2018-07-02T09:48:44.316Z,1.60
2018-07-02T09:51:12.597Z,1.70
2018-07-02T09:53:40.984Z,1.43
2018-07-02T09:56:09.315Z,1.20
2018-07-02T09:58:37.972Z,1.60
2018-07-02T10:01:10.625Z,2.40
2018-07-02T10:03:39.153Z,1.43
2018-07-02T10:06:08.601Z,1.90
2018-07-02T10:08:37.187Z,1.50
2018-07-02T10:11:05.503Z,1.30
2018-07-02T10:13:33.840Z,1.40
2018-07-02T10:16:02.807Z,1.33
2018-07-02T10:18:31.386Z,1.30
2018-07-02T10:21:00.105Z,1.40
2018-07-02T10:23:28.739Z,1.50
2018-07-02T10:25:57.295Z,1.70
2018-07-02T10:28:25.685Z,1.47
2018-07-02T10:30:54.059Z,1.60
2018-07-02T10:33:22.968Z,2.53
2018-07-02T10:35:51.222Z,1.43
2018-07-02T10:38:20.103Z,1.10
2018-07-02T10:40:48.396Z,1.13
2018-07-02T10:43:17.215Z,1.60
2018-07-02T10:45:46.115Z,1.33
2018-07-02T10:48:14.703Z,1.20
2018-07-02T10:50:43.358Z,1.20
2018-07-02T10:53:11.857Z,1.20
2018-07-02T10:55:41.040Z,1.40
2018-07-02T10:58:09.590Z,1.30
2018-07-02T11:00:37.887Z,1.43
2018-07-02T11:03:06.151Z,1.30
2018-07-02T11:05:34.774Z,1.60
2018-07-02T11:08:17.806Z,1.53
2018-07-02T11:10:57.008Z,1.50
2018-07-02T11:13:25.286Z,1.30
2018-07-02T11:15:59.834Z,1.40
2018-07-02T11:18:28.549Z,1.73
2018-07-02T11:20:57.940Z,1.83
2018-07-02T11:23:26.531Z,1.20
2018-07-02T11:25:54.778Z,1.23
2018-07-02T11:28:23.628Z,1.43
2018-07-02T11:30:52.530Z,1.27
2018-07-02T11:33:21.664Z,1.47
2018-07-02T11:35:50.500Z,1.30
2018-07-02T11:38:19.627Z,1.20
2018-07-02T11:40:48.021Z,1.20
2018-07-02T11:43:17.073Z,1.60
2018-07-02T11:45:45.610Z,1.10
2018-07-02T11:48:14.389Z,1.27
2018-07-02T11:50:43.125Z,1.60
2018-07-02T11:53:11.399Z,1.20
2018-07-02T11:55:40.855Z,1.10
2018-07-02T11:58:09.127Z,1.07
2018-07-02T12:00:38.452Z,1.07
2018-07-02T12:03:07.857Z,1.10
2018-07-02T12:05:36.641Z,1.17
2018-07-02T12:08:05.743Z,1.30
2018-07-02T12:10:34.433Z,1.30
2018-07-02T12:13:04.334Z,1.57
2018-07-02T12:15:33.320Z,1.40
2018-07-02T12:18:02.135Z,2.10
2018-07-02T12:20:30.558Z,1.37
2018-07-02T12:22:59.169Z,1.27
2018-07-02T12:25:27.990Z,1.50
2018-07-02T12:27:56.829Z,1.17
2018-07-02T12:30:26.006Z,1.23
2018-07-02T12:32:54.919Z,1.10
2018-07-02T12:35:23.740Z,1.30
2018-07-02T12:37:53.483Z,1.57
2018-07-02T12:40:21.900Z,1.50
2018-07-02T12:42:50.210Z,1.60
2018-07-02T12:45:37.967Z,1.40
2018-07-02T12:48:08.125Z,1.23
2018-07-02T12:50:37.053Z,1.40
2018-07-02T12:53:05.926Z,1.43
2018-07-02T12:55:34.406Z,1.37
2018-07-02T12:58:14.038Z,1.00
2018-07-02T13:00:42.873Z,1.10
2018-07-02T13:03:11.652Z,1.20
2018-07-02T13:05:40.829Z,1.70
2018-07-02T13:08:10.723Z,1.20
2018-07-02T13:10:39.812Z,1.20
2018-07-02T13:13:08.768Z,1.13
2018-07-02T13:15:37.715Z,1.20
2018-07-02T13:18:06.382Z,1.10
2018-07-02T13:20:34.732Z,1.37
2018-07-02T13:23:03.097Z,1.13
2018-07-02T13:25:31.372Z,1.40
2018-07-02T13:28:02.086Z,1.27
2018-07-02T13:30:30.694Z,1.10
2018-07-02T13:32:59.149Z,1.03
2018-07-02T13:35:27.425Z,1.27
2018-07-02T13:37:55.786Z,1.43
2018-07-02T13:40:24.113Z,1.30
2018-07-02T13:42:52.405Z,1.33
2018-07-02T13:45:21.396Z,1.33
2018-07-02T13:47:50.879Z,1.40
2018-07-02T13:50:20.226Z,1.37
2018-07-02T13:52:48.939Z,1.37
2018-07-02T13:55:17.322Z,1.10
2018-07-02T13:57:47.045Z,1.47
2018-07-02T14:00:15.798Z,1.20
2018-07-02T14:02:44.761Z,1.40
2018-07-02T14:05:13.015Z,1.43
2018-07-02T14:07:41.378Z,1.20
2018-07-02T14:10:10.029Z,1.40
2018-07-02T14:12:38.654Z,1.30
2018-07-02T14:15:08.766Z,1.23
2018-07-02T14:17:37.832Z,1.40
2018-07-02T14:20:06.761Z,1.40
2018-07-02T14:22:35.120Z,1.23
2018-07-02T14:25:12.718Z,1.30
2018-07-02T14:27:41.984Z,1.30
2018-07-02T14:30:10.837Z,1.40
2018-07-02T14:32:39.594Z,1.27
2018-07-02T14:35:08.216Z,1.50
2018-07-02T14:37:36.825Z,1.27
2018-07-02T14:40:05.197Z,1.37
2018-07-02T14:42:33.705Z,1.43
2018-07-02T14:45:02.318Z,1.47
2018-07-02T14:47:39.704Z,1.27
2018-07-02T14:50:09.553Z,1.50
2018-07-02T14:52:37.896Z,1.43
2018-07-02T14:55:07.359Z,1.30
2018-07-02T14:57:35.996Z,1.37
2018-07-02T15:00:05.276Z,1.43
2018-07-02T15:02:33.991Z,1.40
2018-07-02T15:05:02.857Z,1.43
2018-07-02T15:07:31.578Z,1.20
2018-07-02T15:10:10.841Z,1.20
2018-07-02T15:12:39.864Z,1.40
2018-07-02T15:15:08.661Z,1.50
2018-07-02T15:17:38.145Z,1.53
2018-07-02T15:20:06.980Z,1.30
2018-07-02T15:22:35.783Z,2.03
2018-07-02T15:25:04.212Z,1.53
2018-07-02T15:27:32.547Z,1.30
2018-07-02T15:30:00.979Z,1.77
2018-07-02T15:32:29.862Z,1.37
2018-07-02T15:34:58.694Z,1.30
2018-07-02T15:37:27.092Z,1.80
2018-07-02T15:39:55.524Z,1.20
2018-07-02T15:42:23.908Z,1.43
2018-07-02T15:44:52.605Z,1.33
2018-07-02T15:47:21.319Z,1.40
2018-07-02T15:49:51.295Z,1.50
2018-07-02T15:52:19.623Z,1.47
2018-07-02T15:54:48.301Z,1.10
2018-07-02T15:57:16.989Z,1.57
2018-07-02T15:59:45.727Z,1.30
2018-07-02T16:02:14.615Z,1.50
2018-07-02T16:04:43.335Z,1.53
2018-07-02T16:07:12.105Z,1.33
2018-07-02T16:09:40.858Z,1.20
2018-07-02T16:12:09.575Z,2.13
2018-07-02T16:14:38.355Z,1.30
2018-07-02T16:17:07.009Z,1.03
2018-07-02T16:19:35.720Z,1.20
2018-07-02T16:22:04.765Z,1.27
2018-07-02T16:24:33.692Z,1.40
2018-07-02T16:27:02.431Z,1.43
2018-07-02T16:29:31.288Z,1.33
2018-07-02T16:31:59.942Z,1.70
2018-07-02T16:34:28.756Z,1.40
2018-07-02T16:36:57.420Z,1.70
2018-07-02T16:39:26.108Z,1.27
2018-07-02T16:41:54.803Z,1.47
2018-07-02T16:44:23.578Z,1.40
2018-07-02T16:46:52.069Z,1.60
2018-07-02T16:49:20.484Z,1.27
2018-07-02T16:51:48.961Z,1.10
2018-07-02T16:54:17.401Z,1.30
2018-07-02T16:56:46.018Z,1.40
2018-07-02T16:59:14.908Z,1.27
2018-07-02T17:01:43.692Z,1.17
2018-07-02T17:04:12.158Z,1.37
2018-07-02T17:06:40.925Z,1.17
2018-07-02T17:09:11.650Z,1.47
2018-07-02T17:11:40.870Z,1.30
2018-07-02T17:14:11.176Z,1.20
2018-07-02T17:16:40.156Z,1.30
2018-07-02T17:19:08.899Z,1.20
2018-07-02T17:21:37.795Z,1.50
2018-07-02T17:24:06.373Z,1.10
2018-07-02T17:26:34.886Z,1.03
2018-07-02T17:29:03.752Z,1.10
2018-07-02T17:31:32.137Z,1.00
2018-07-02T17:34:00.542Z,1.10
2018-07-02T17:36:28.855Z,0.90
2018-07-02T17:38:57.246Z,1.00
2018-07-02T17:41:25.667Z,0.83
2018-07-02T17:43:54.089Z,1.00
2018-07-02T17:46:22.871Z,1.20
2018-07-02T17:48:51.233Z,1.20
2018-07-02T17:51:19.616Z,1.37
2018-07-02T17:53:48.418Z,1.10
2018-07-02T17:56:17.265Z,2.10
2018-07-02T17:58:45.963Z,1.97
2018-07-02T18:01:14.765Z,3.10
2018-07-02T18:03:43.645Z,2.87
2018-07-02T18:06:12.744Z,2.50
2018-07-02T18:08:41.519Z,3.03
2018-07-02T18:11:10.285Z,2.53
2018-07-02T18:13:39.018Z,2.27
2018-07-02T18:16:07.748Z,2.10
2018-07-02T18:18:36.175Z,2.17
2018-07-02T18:21:05.162Z,2.20
2018-07-02T18:23:33.558Z,2.83
2018-07-02T18:26:01.964Z,3.20
2018-07-02T18:28:30.332Z,3.10
2018-07-02T18:30:58.738Z,2.70
2018-07-02T18:33:27.074Z,2.40
2018-07-02T18:35:55.561Z,3.17
2018-07-02T18:38:24.246Z,2.10
2018-07-02T18:40:53.010Z,1.47
2018-07-02T18:43:21.495Z,1.63
2018-07-02T18:45:50.035Z,1.50
2018-07-02T18:48:19.222Z,1.20
2018-07-02T18:50:47.611Z,1.40
2018-07-02T18:53:16.421Z,1.13
2018-07-02T18:55:44.950Z,1.17
2018-07-02T18:58:14.498Z,1.60
2018-07-02T19:00:43.685Z,1.50
2018-07-02T19:03:13.010Z,1.30
2018-07-02T19:05:59.168Z,1.60
2018-07-02T19:08:43.055Z,1.50
2018-07-02T19:11:11.809Z,1.40
2018-07-02T19:13:40.396Z,1.30
2018-07-02T19:16:08.912Z,1.10
2018-07-02T19:18:37.694Z,1.27
2018-07-02T19:21:06.485Z,1.30
2018-07-02T19:23:35.527Z,1.30
2018-07-02T19:26:04.217Z,1.47
2018-07-02T19:28:33.324Z,1.77
2018-07-02T19:31:02.231Z,1.87
2018-07-02T19:33:31.049Z,1.77
2018-07-02T19:35:59.489Z,1.77
2018-07-02T19:38:29.896Z,1.83
2018-07-02T19:40:58.993Z,1.67
2018-07-02T19:43:28.190Z,1.53
2018-07-02T19:45:57.056Z,1.50
2018-07-02T19:48:26.155Z,1.50
2018-07-02T19:50:54.711Z,1.50
2018-07-02T19:53:23.310Z,1.33
2018-07-02T19:55:52.072Z,1.20
2018-07-02T19:58:21.217Z,1.30
2018-07-02T20:00:49.700Z,1.30
2018-07-02T20:03:18.391Z,1.43
2018-07-02T20:05:47.977Z,1.50
2018-07-02T20:08:16.311Z,1.50
2018-07-02T20:10:45.396Z,1.43
2018-07-02T20:13:14.256Z,1.47
2018-07-02T20:15:43.478Z,1.60
2018-07-02T20:18:12.708Z,1.43
2018-07-02T20:20:55.138Z,1.50
2018-07-02T20:23:24.619Z,1.60
2018-07-02T20:25:52.946Z,1.70
2018-07-02T20:28:21.799Z,1.63
2018-07-02T20:30:50.391Z,1.50
2018-07-02T20:33:19.589Z,1.90
2018-07-02T20:35:48.533Z,1.50
2018-07-02T20:38:17.190Z,1.90
2018-07-02T20:40:46.134Z,1.30
2018-07-02T20:43:14.506Z,1.37
2018-07-02T20:45:48.678Z,1.23
2018-07-02T20:48:19.826Z,1.40
2018-07-02T20:50:50.745Z,1.30
2018-07-02T20:53:19.891Z,1.60
2018-07-02T20:55:48.328Z,1.30
2018-07-02T20:58:16.728Z,1.80
2018-07-02T21:00:45.564Z,1.60
2018-07-02T21:03:14.479Z,1.17
2018-07-02T21:05:43.188Z,1.63
2018-07-02T21:08:12.828Z,1.87
2018-07-02T21:10:41.727Z,1.47
2018-07-02T21:13:10.551Z,1.50
2018-07-02T21:15:39.698Z,1.30
2018-07-02T21:18:08.112Z,1.43
2018-07-02T21:20:36.879Z,1.47
2018-07-02T21:23:05.662Z,1.60
2018-07-02T21:25:34.362Z,1.30
2018-07-02T21:28:03.089Z,1.40
2018-07-02T21:30:31.497Z,1.53
2018-07-02T21:33:00.307Z,1.40
2018-07-02T21:35:29.040Z,1.37
2018-07-02T21:37:57.424Z,1.47
2018-07-02T21:40:26.101Z,1.23
2018-07-02T21:42:54.834Z,1.30
2018-07-02T21:45:23.541Z,1.30
2018-07-02T21:47:51.893Z,1.47
2018-07-02T21:50:20.231Z,1.40
2018-07-02T21:52:48.898Z,1.33
2018-07-02T21:55:17.572Z,1.50
2018-07-02T21:57:47.366Z,1.33
2018-07-02T22:00:15.864Z,1.47
2018-07-02T22:02:44.645Z,1.40
2018-07-02T22:05:13.442Z,1.67
2018-07-02T22:07:41.741Z,1.63
2018-07-02T22:10:10.469Z,1.43
2018-07-02T22:12:39.194Z,1.13
2018-07-02T22:15:07.925Z,1.57
2018-07-02T22:17:36.303Z,1.30
2018-07-02T22:20:06.463Z,1.53
2018-07-02T22:22:35.238Z,1.30
2018-07-02T22:25:04.079Z,1.77
2018-07-02T22:27:32.782Z,1.33
2018-07-02T22:30:01.623Z,1.50
2018-07-02T22:32:30.302Z,1.63
2018-07-02T22:34:58.998Z,1.33
2018-07-02T22:37:27.803Z,1.33
2018-07-02T22:39:56.520Z,1.30
2018-07-02T22:42:24.978Z,1.40
2018-07-02T22:44:53.245Z,1.60
2018-07-02T22:47:21.971Z,1.40
2018-07-02T22:49:50.671Z,1.20
2018-07-02T22:52:20.446Z,1.60
2018-07-02T22:54:49.147Z,1.67
2018-07-02T22:57:17.975Z,1.60
2018-07-02T22:59:46.458Z,1.93
2018-07-02T23:02:15.251Z,1.43
2018-07-02T23:04:43.581Z,1.70
2018-07-02T23:07:12.259Z,1.67
2018-07-02T23:09:40.974Z,1.70
2018-07-02T23:12:09.689Z,1.70
2018-07-02T23:14:38.407Z,1.70
2018-07-02T23:17:07.117Z,1.60
2018-07-02T23:19:35.908Z,2.10
2018-07-02T23:22:04.623Z,1.40
2018-07-02T23:24:33.433Z,1.67
2018-07-02T23:27:02.150Z,1.90
2018-07-02T23:29:30.923Z,1.60
2018-07-02T23:31:59.590Z,1.60
2018-07-02T23:34:28.343Z,1.63
2018-07-02T23:36:56.687Z,2.10
2018-07-02T23:39:25.401Z,1.40
2018-07-02T23:41:53.769Z,2.00
2018-07-02T23:44:22.455Z,2.00
2018-07-02T23:46:51.191Z,2.00
2018-07-02T23:49:19.907Z,2.10
2018-07-02T23:51:48.229Z,2.10
2018-07-02T23:54:16.981Z,1.90
2018-07-02T23:56:45.821Z,2.10
2018-07-02T23:59:14.533Z,2.00
